createdAt,value
2018-07-13T05:25:18.811Z,1014.44
2018-07-13T05:25:54.307Z,1014.46
2018-07-13T05:26:29.676Z,1014.46
2018-07-13T05:27:04.921Z,1014.46
2018-07-13T05:27:40.616Z,1014.43
2018-07-13T05:28:16.226Z,1014.47
2018-07-13T05:28:51.545Z,1014.44
2018-07-13T05:29:26.975Z,1014.44
2018-07-13T05:30:02.270Z,1014.43
2018-07-13T05:30:38.068Z,1014.43
2018-07-13T05:31:13.284Z,1014.44
2018-07-13T05:31:48.759Z,1014.49
2018-07-13T05:32:24.087Z,1014.45
2018-07-13T05:32:59.503Z,1014.48
2018-07-13T05:33:34.832Z,1014.48
2018-07-13T05:34:10.470Z,1014.47
2018-07-13T05:34:45.801Z,1014.51
2018-07-13T05:35:21.025Z,1014.49
2018-07-13T05:35:56.231Z,1014.48
2018-07-13T05:36:31.637Z,1014.47
2018-07-13T05:37:07.136Z,1014.50
2018-07-13T05:37:42.463Z,1014.52
2018-07-13T05:38:17.984Z,1014.49
2018-07-13T05:38:53.270Z,1014.49
2018-07-13T05:39:28.596Z,1014.52
2018-07-13T05:40:03.913Z,1014.49
2018-07-13T05:40:38.898Z,1014.53
2018-07-13T05:41:14.009Z,1014.51
2018-07-13T05:41:49.381Z,1014.52
2018-07-13T05:42:24.599Z,1014.54
2018-07-13T05:42:59.734Z,1014.56
2018-07-13T05:43:35.046Z,1014.56
2018-07-13T05:44:10.377Z,1014.56
2018-07-13T05:44:46.136Z,1014.58
2018-07-13T05:45:21.858Z,1014.56
2018-07-13T05:45:57.381Z,1014.58
2018-07-13T05:46:32.715Z,1014.53
2018-07-13T05:47:07.904Z,1014.58
2018-07-13T05:47:43.224Z,1014.57
2018-07-13T05:48:18.411Z,1014.61
2018-07-13T05:48:53.822Z,1014.60
2018-07-13T05:49:29.282Z,1014.57
2018-07-13T05:50:04.512Z,1014.64
2018-07-13T05:50:39.627Z,1014.64
2018-07-13T05:51:14.819Z,1014.63
2018-07-13T05:51:50.250Z,1014.66
2018-07-13T05:52:25.851Z,1014.65
2018-07-13T05:53:01.059Z,1014.65
2018-07-13T05:53:36.292Z,1014.64
2018-07-13T05:54:11.506Z,1014.66
2018-07-13T05:54:46.826Z,1014.62
2018-07-13T05:55:22.238Z,1014.66
2018-07-13T05:55:57.515Z,1014.68
2018-07-13T05:56:33.035Z,1014.67
2018-07-13T05:57:08.758Z,1014.63
2018-07-13T05:57:44.452Z,1014.66
2018-07-13T05:58:19.972Z,1014.66
2018-07-13T05:58:55.461Z,1014.64
2018-07-13T05:59:30.828Z,1014.66
2018-07-13T06:00:06.536Z,1014.67
2018-07-13T06:00:42.028Z,1014.67
2018-07-13T06:01:17.566Z,1014.66
2018-07-13T06:01:52.883Z,1014.63
2018-07-13T06:02:28.238Z,1014.65
2018-07-13T06:03:03.602Z,1014.67
2018-07-13T06:03:39.033Z,1014.64
2018-07-13T06:04:14.121Z,1014.65
2018-07-13T06:04:49.353Z,1014.63
2018-07-13T06:05:24.637Z,1014.66
2018-07-13T06:05:59.861Z,1014.63
2018-07-13T06:06:35.138Z,1014.66
2018-07-13T06:07:10.692Z,1014.66
2018-07-13T06:07:45.885Z,1014.64
2018-07-13T06:08:21.610Z,1014.64
2018-07-13T06:08:56.807Z,1014.68
2018-07-13T06:09:32.342Z,1014.65
2018-07-13T06:10:07.796Z,1014.68
2018-07-13T06:10:43.551Z,1014.67
2018-07-13T06:11:21.985Z,1014.70
2018-07-13T06:12:00.492Z,1014.68
2018-07-13T06:12:35.808Z,1014.71
2018-07-13T06:13:11.132Z,1014.68
2018-07-13T06:13:46.644Z,1014.67
2018-07-13T06:14:21.846Z,1014.69
2018-07-13T06:15:00.924Z,1014.71
2018-07-13T06:15:36.063Z,1014.67
2018-07-13T06:16:11.404Z,1014.68
2018-07-13T06:16:46.536Z,1014.69
2018-07-13T06:17:24.025Z,1014.73
2018-07-13T06:17:59.951Z,1014.71
2018-07-13T06:18:36.072Z,1014.69
2018-07-13T06:19:11.613Z,1014.70
2018-07-13T06:19:50.370Z,1014.72
2018-07-13T06:20:28.573Z,1014.74
2018-07-13T06:21:03.990Z,1014.70
2018-07-13T06:21:42.406Z,1014.70
2018-07-13T06:22:21.123Z,1014.70
2018-07-13T06:22:58.231Z,1014.74
2018-07-13T06:23:33.865Z,1014.72
2018-07-13T06:24:09.492Z,1014.70
2018-07-13T06:24:45.126Z,1014.72
2018-07-13T06:25:20.438Z,1014.71
2018-07-13T06:25:55.868Z,1014.72
2018-07-13T06:26:31.474Z,1014.73
2018-07-13T06:27:06.792Z,1014.68
2018-07-13T06:27:42.353Z,1014.71
2018-07-13T06:28:18.761Z,1014.73
2018-07-13T06:28:54.497Z,1014.74
2018-07-13T06:29:29.908Z,1014.73
2018-07-13T06:30:05.317Z,1014.75
2018-07-13T06:30:45.252Z,1014.75
2018-07-13T06:31:20.843Z,1014.77
2018-07-13T06:31:56.167Z,1014.79
2018-07-13T06:32:31.497Z,1014.75
2018-07-13T06:33:07.004Z,1014.76
2018-07-13T06:33:42.639Z,1014.81
2018-07-13T06:34:17.981Z,1014.78
2018-07-13T06:34:53.207Z,1014.77
2018-07-13T06:35:28.451Z,1014.78
2018-07-13T06:36:04.057Z,1014.77
2018-07-13T06:36:39.400Z,1014.80
2018-07-13T06:37:14.702Z,1014.82
2018-07-13T06:37:50.024Z,1014.78
2018-07-13T06:38:25.341Z,1014.82
2018-07-13T06:39:00.561Z,1014.83
2018-07-13T06:39:37.393Z,1014.84
2018-07-13T06:40:12.811Z,1014.84
2018-07-13T06:40:48.033Z,1014.88
2018-07-13T06:41:23.518Z,1014.83
2018-07-13T06:41:59.088Z,1014.91
2018-07-13T06:42:34.282Z,1014.88
2018-07-13T06:43:10.102Z,1014.85
2018-07-13T06:43:45.424Z,1014.89
2018-07-13T06:44:20.762Z,1014.84
2018-07-13T06:44:56.275Z,1014.89
2018-07-13T06:45:31.601Z,1014.85
2018-07-13T06:46:07.033Z,1014.81
2018-07-13T06:46:44.462Z,1014.83
2018-07-13T06:47:20.090Z,1014.86
2018-07-13T06:47:55.405Z,1014.86
2018-07-13T06:48:30.435Z,1014.85
2018-07-13T06:49:05.750Z,1014.88
2018-07-13T06:49:41.202Z,1014.87
2018-07-13T06:50:16.397Z,1014.88
2018-07-13T06:50:54.829Z,1014.86
2018-07-13T06:51:30.231Z,1014.90
2018-07-13T06:52:05.564Z,1014.88
2018-07-13T06:52:40.936Z,1014.88
2018-07-13T06:53:16.249Z,1014.89
2018-07-13T06:53:51.395Z,1014.88
2018-07-13T06:54:26.718Z,1014.90
2018-07-13T06:55:02.931Z,1014.93
2018-07-13T06:55:39.442Z,1014.91
2018-07-13T06:56:14.688Z,1014.93
2018-07-13T06:56:50.160Z,1014.94
2018-07-13T06:57:25.545Z,1014.93
2018-07-13T06:58:00.743Z,1014.92
2018-07-13T06:58:36.061Z,1014.94
2018-07-13T06:59:11.469Z,1014.91
2018-07-13T06:59:46.917Z,1014.95
2018-07-13T07:00:22.334Z,1014.97
2018-07-13T07:01:03.038Z,1014.97
2018-07-13T07:01:38.653Z,1014.98
2018-07-13T07:02:14.095Z,1015.00
2018-07-13T07:02:49.352Z,1015.00
2018-07-13T07:03:24.790Z,1014.99
2018-07-13T07:04:00.354Z,1015.01
2018-07-13T07:04:35.443Z,1015.02
2018-07-13T07:05:10.573Z,1015.04
2018-07-13T07:05:45.888Z,1015.04
2018-07-13T07:06:21.323Z,1015.02
2018-07-13T07:06:56.541Z,1015.06
2018-07-13T07:07:31.906Z,1015.07
2018-07-13T07:08:07.094Z,1015.08
2018-07-13T07:08:42.350Z,1015.07
2018-07-13T07:09:17.671Z,1015.08
2018-07-13T07:09:53.090Z,1015.08
2018-07-13T07:10:28.436Z,1015.06
2018-07-13T07:11:03.825Z,1015.11
2018-07-13T07:11:39.140Z,1015.14
2018-07-13T07:12:14.221Z,1015.13
2018-07-13T07:12:49.333Z,1015.13
2018-07-13T07:13:24.754Z,1015.12
2018-07-13T07:13:59.843Z,1015.12
2018-07-13T07:14:35.192Z,1015.18
2018-07-13T07:15:12.013Z,1015.18
2018-07-13T07:15:51.446Z,1015.17
2018-07-13T07:16:26.856Z,1015.16
2018-07-13T07:17:02.381Z,1015.15
2018-07-13T07:17:37.625Z,1015.16
2018-07-13T07:18:13.104Z,1015.16
2018-07-13T07:18:48.927Z,1015.19
2018-07-13T07:19:24.258Z,1015.15
2018-07-13T07:19:59.605Z,1015.16
2018-07-13T07:20:35.731Z,1015.22
2018-07-13T07:21:11.374Z,1015.22
2018-07-13T07:21:46.686Z,1015.23
2018-07-13T07:22:22.225Z,1015.22
2018-07-13T07:22:57.883Z,1015.24
2018-07-13T07:23:33.023Z,1015.25
2018-07-13T07:24:08.628Z,1015.24
2018-07-13T07:24:44.127Z,1015.25
2018-07-13T07:25:19.229Z,1015.27
2018-07-13T07:25:54.566Z,1015.25
2018-07-13T07:26:29.981Z,1015.24
2018-07-13T07:27:05.482Z,1015.24
2018-07-13T07:27:42.097Z,1015.23
2018-07-13T07:28:17.387Z,1015.25
2018-07-13T07:28:54.635Z,1015.27
2018-07-13T07:29:30.051Z,1015.21
2018-07-13T07:30:05.470Z,1015.20
2018-07-13T07:30:41.808Z,1015.22
2018-07-13T07:31:17.329Z,1015.23
2018-07-13T07:31:52.852Z,1015.20
2018-07-13T07:32:28.175Z,1015.24
2018-07-13T07:33:03.223Z,1015.20
2018-07-13T07:33:38.460Z,1015.23
2018-07-13T07:34:13.812Z,1015.25
2018-07-13T07:34:49.532Z,1015.24
2018-07-13T07:35:24.647Z,1015.22
2018-07-13T07:36:00.070Z,1015.19
2018-07-13T07:36:35.286Z,1015.22
2018-07-13T07:37:10.905Z,1015.18
2018-07-13T07:37:48.715Z,1015.15
2018-07-13T07:38:24.154Z,1015.15
2018-07-13T07:38:59.376Z,1015.19
2018-07-13T07:39:34.833Z,1015.15
2018-07-13T07:40:09.965Z,1015.13
2018-07-13T07:40:45.606Z,1015.16
2018-07-13T07:41:21.202Z,1015.16
2018-07-13T07:41:56.523Z,1015.16
2018-07-13T07:42:31.734Z,1015.18
2018-07-13T07:43:07.061Z,1015.15
2018-07-13T07:43:42.357Z,1015.15
2018-07-13T07:44:17.681Z,1015.20
2018-07-13T07:44:53.030Z,1015.17
2018-07-13T07:45:28.273Z,1015.18
2018-07-13T07:46:03.416Z,1015.18
2018-07-13T07:46:38.714Z,1015.20
2018-07-13T07:47:14.250Z,1015.20
2018-07-13T07:47:49.642Z,1015.21
2018-07-13T07:48:24.985Z,1015.17
2018-07-13T07:49:00.459Z,1015.21
2018-07-13T07:49:36.808Z,1015.16
2018-07-13T07:50:12.420Z,1015.22
2018-07-13T07:50:49.936Z,1015.20
2018-07-13T07:51:25.035Z,1015.20
2018-07-13T07:52:00.357Z,1015.14
2018-07-13T07:52:35.590Z,1015.18
2018-07-13T07:53:11.104Z,1015.16
2018-07-13T07:53:46.418Z,1015.17
2018-07-13T07:54:21.701Z,1015.15
2018-07-13T07:54:57.143Z,1015.18
2018-07-13T07:55:34.345Z,1015.20
2018-07-13T07:56:09.943Z,1015.16
2018-07-13T07:56:45.051Z,1015.20
2018-07-13T07:57:20.308Z,1015.20
2018-07-13T07:57:55.707Z,1015.17
2018-07-13T07:58:31.813Z,1015.18
2018-07-13T07:59:07.142Z,1015.19
2018-07-13T07:59:42.229Z,1015.19
2018-07-13T08:00:17.552Z,1015.22
2018-07-13T08:00:55.981Z,1015.21
2018-07-13T08:01:31.520Z,1015.22
2018-07-13T08:02:06.850Z,1015.22
2018-07-13T08:02:43.730Z,1015.22
2018-07-13T08:03:18.846Z,1015.22
2018-07-13T08:03:53.964Z,1015.21
2018-07-13T08:04:29.176Z,1015.21
2018-07-13T08:05:04.530Z,1015.21
2018-07-13T08:05:39.863Z,1015.21
2018-07-13T08:06:15.467Z,1015.22
2018-07-13T08:06:51.193Z,1015.19
2018-07-13T08:07:26.237Z,1015.22
2018-07-13T08:08:01.519Z,1015.22
2018-07-13T08:08:36.833Z,1015.21
2018-07-13T08:09:14.584Z,1015.20
2018-07-13T08:09:50.013Z,1015.25
2018-07-13T08:10:25.664Z,1015.23
2018-07-13T08:11:01.100Z,1015.18
2018-07-13T08:11:36.847Z,1015.20
2018-07-13T08:12:12.467Z,1015.19
2018-07-13T08:12:47.660Z,1015.22
2018-07-13T08:13:22.963Z,1015.20
2018-07-13T08:13:58.527Z,1015.21
2018-07-13T08:14:34.058Z,1015.21
2018-07-13T08:15:09.963Z,1015.20
2018-07-13T08:15:45.185Z,1015.25
2018-07-13T08:16:20.872Z,1015.21
2018-07-13T08:16:56.608Z,1015.28
2018-07-13T08:17:32.121Z,1015.26
2018-07-13T08:18:08.146Z,1015.27
2018-07-13T08:18:44.874Z,1015.27
2018-07-13T08:19:20.376Z,1015.26
2018-07-13T08:19:56.146Z,1015.28
2018-07-13T08:20:31.765Z,1015.27
2018-07-13T08:21:07.110Z,1015.29
2018-07-13T08:21:42.300Z,1015.27
2018-07-13T08:22:17.636Z,1015.23
2018-07-13T08:22:52.845Z,1015.31
2018-07-13T08:23:28.384Z,1015.29
2018-07-13T08:24:03.684Z,1015.30
2018-07-13T08:24:38.828Z,1015.28
2018-07-13T08:25:14.580Z,1015.31
2018-07-13T08:25:51.621Z,1015.38
2018-07-13T08:26:26.936Z,1015.38
2018-07-13T08:27:02.276Z,1015.38
2018-07-13T08:27:38.431Z,1015.32
2018-07-13T08:28:13.671Z,1015.41
2018-07-13T08:28:49.085Z,1015.35
2018-07-13T08:29:24.244Z,1015.31
2018-07-13T08:29:59.489Z,1015.32
2018-07-13T08:30:34.689Z,1015.32
2018-07-13T08:31:09.929Z,1015.34
2018-07-13T08:31:45.363Z,1015.35
2018-07-13T08:32:20.699Z,1015.38
2018-07-13T08:32:56.027Z,1015.33
2018-07-13T08:33:31.571Z,1015.34
2018-07-13T08:34:09.914Z,1015.37
2018-07-13T08:34:47.352Z,1015.32
2018-07-13T08:35:22.809Z,1015.37
2018-07-13T08:35:58.015Z,1015.30
2018-07-13T08:36:33.351Z,1015.32
2018-07-13T08:37:08.556Z,1015.29
2018-07-13T08:37:43.749Z,1015.35
2018-07-13T08:38:19.058Z,1015.30
2018-07-13T08:38:54.366Z,1015.30
2018-07-13T08:39:29.937Z,1015.33
2018-07-13T08:40:05.128Z,1015.32
2018-07-13T08:40:40.860Z,1015.35
2018-07-13T08:41:16.174Z,1015.34
2018-07-13T08:41:51.689Z,1015.36
2018-07-13T08:42:27.313Z,1015.32
2018-07-13T08:43:03.336Z,1015.34
2018-07-13T08:43:39.384Z,1015.32
2018-07-13T08:44:14.737Z,1015.34
2018-07-13T08:44:50.124Z,1015.35
2018-07-13T08:45:25.512Z,1015.39
2018-07-13T08:46:00.886Z,1015.39
2018-07-13T08:46:36.182Z,1015.34
2018-07-13T08:47:13.620Z,1015.34
2018-07-13T08:47:48.839Z,1015.29
2018-07-13T08:48:24.061Z,1015.31
2018-07-13T08:49:01.365Z,1015.32
2018-07-13T08:49:37.266Z,1015.34
2018-07-13T08:50:12.479Z,1015.33
2018-07-13T08:50:47.814Z,1015.32
2018-07-13T08:51:23.160Z,1015.33
2018-07-13T08:51:58.564Z,1015.31
2018-07-13T08:52:33.903Z,1015.30
2018-07-13T08:53:09.826Z,1015.31
2018-07-13T08:53:46.200Z,1015.24
2018-07-13T08:54:21.614Z,1015.27
2018-07-13T08:54:57.565Z,1015.28
2018-07-13T08:55:32.916Z,1015.25
2018-07-13T08:56:08.611Z,1015.31
2018-07-13T08:56:43.854Z,1015.32
2018-07-13T08:57:19.200Z,1015.31
2018-07-13T08:57:55.928Z,1015.30
2018-07-13T08:58:31.142Z,1015.28
2018-07-13T08:59:06.161Z,1015.28
2018-07-13T08:59:42.531Z,1015.27
2018-07-13T09:00:17.543Z,1015.30
2018-07-13T09:00:56.157Z,1015.27
2018-07-13T09:01:31.593Z,1015.27
2018-07-13T09:02:06.989Z,1015.25
2018-07-13T09:02:44.723Z,1015.25
2018-07-13T09:03:19.972Z,1015.29
2018-07-13T09:03:55.745Z,1015.26
2018-07-13T09:04:30.929Z,1015.25
2018-07-13T09:05:06.200Z,1015.25
2018-07-13T09:05:41.515Z,1015.25
2018-07-13T09:06:16.847Z,1015.28
2018-07-13T09:06:52.480Z,1015.24
2018-07-13T09:07:27.996Z,1015.26
2018-07-13T09:08:06.583Z,1015.22
2018-07-13T09:08:45.286Z,1015.22
2018-07-13T09:09:20.702Z,1015.24
2018-07-13T09:10:00.577Z,1015.24
2018-07-13T09:10:36.093Z,1015.26
2018-07-13T09:11:11.618Z,1015.26
2018-07-13T09:11:47.060Z,1015.27
2018-07-13T09:12:22.492Z,1015.28
2018-07-13T09:12:57.952Z,1015.32
2018-07-13T09:13:33.859Z,1015.29
2018-07-13T09:14:09.376Z,1015.30
2018-07-13T09:14:44.765Z,1015.28
2018-07-13T09:15:19.958Z,1015.28
2018-07-13T09:15:55.177Z,1015.35
2018-07-13T09:16:30.913Z,1015.33
2018-07-13T09:17:06.316Z,1015.31
2018-07-13T09:17:41.653Z,1015.32
2018-07-13T09:18:20.340Z,1015.34
2018-07-13T09:18:55.504Z,1015.32
2018-07-13T09:19:30.844Z,1015.33
2018-07-13T09:20:06.181Z,1015.32
2018-07-13T09:20:41.705Z,1015.36
2018-07-13T09:21:17.144Z,1015.35
2018-07-13T09:21:52.730Z,1015.35
2018-07-13T09:22:28.252Z,1015.35
2018-07-13T09:23:03.521Z,1015.37
2018-07-13T09:23:38.847Z,1015.37
2018-07-13T09:24:14.595Z,1015.37
2018-07-13T09:24:49.939Z,1015.36
2018-07-13T09:25:27.982Z,1015.38
2018-07-13T09:26:03.198Z,1015.38
2018-07-13T09:26:38.718Z,1015.41
2018-07-13T09:27:13.885Z,1015.44
2018-07-13T09:27:49.402Z,1015.44
2018-07-13T09:28:24.654Z,1015.39
2018-07-13T09:28:59.977Z,1015.38
2018-07-13T09:29:35.254Z,1015.41
2018-07-13T09:30:10.442Z,1015.36
2018-07-13T09:30:46.092Z,1015.39
2018-07-13T09:31:21.553Z,1015.35
2018-07-13T09:31:56.829Z,1015.33
2018-07-13T09:32:32.238Z,1015.32
2018-07-13T09:33:07.680Z,1015.34
2018-07-13T09:33:44.080Z,1015.34
2018-07-13T09:34:19.535Z,1015.30
2018-07-13T09:34:55.100Z,1015.33
2018-07-13T09:35:30.538Z,1015.36
2018-07-13T09:36:05.993Z,1015.38
2018-07-13T09:36:44.202Z,1015.34
2018-07-13T09:37:19.529Z,1015.29
2018-07-13T09:37:54.886Z,1015.26
2018-07-13T09:38:30.174Z,1015.30
2018-07-13T09:39:05.850Z,1015.32
2018-07-13T09:39:42.018Z,1015.30
2018-07-13T09:40:17.148Z,1015.31
2018-07-13T09:40:53.968Z,1015.30
2018-07-13T09:41:29.492Z,1015.32
2018-07-13T09:42:04.803Z,1015.32
2018-07-13T09:42:40.373Z,1015.30
2018-07-13T09:43:15.786Z,1015.31
2018-07-13T09:43:52.042Z,1015.32
2018-07-13T09:44:27.184Z,1015.34
2018-07-13T09:45:04.924Z,1015.33
2018-07-13T09:45:42.363Z,1015.32
2018-07-13T09:46:18.109Z,1015.33
2018-07-13T09:46:53.766Z,1015.36
2018-07-13T09:47:28.748Z,1015.32
2018-07-13T09:48:03.980Z,1015.32
2018-07-13T09:48:41.824Z,1015.29
2018-07-13T09:49:17.136Z,1015.26
2018-07-13T09:49:55.692Z,1015.27
2018-07-13T09:50:33.073Z,1015.28
2018-07-13T09:51:08.267Z,1015.30
2018-07-13T09:51:43.700Z,1015.26
2018-07-13T09:52:19.005Z,1015.30
2018-07-13T09:52:57.569Z,1015.29
2018-07-13T09:53:32.839Z,1015.25
2018-07-13T09:54:09.909Z,1015.25
2018-07-13T09:54:45.336Z,1015.30
2018-07-13T09:55:23.623Z,1015.27
2018-07-13T09:55:59.095Z,1015.27
2018-07-13T09:56:34.428Z,1015.29
2018-07-13T09:57:13.007Z,1015.26
2018-07-13T09:57:48.302Z,1015.27
2018-07-13T09:58:23.533Z,1015.27
2018-07-13T09:58:58.980Z,1015.26
2018-07-13T09:59:34.291Z,1015.28
2018-07-13T10:00:09.670Z,1015.29
2018-07-13T10:00:46.398Z,1015.27
2018-07-13T10:01:21.536Z,1015.26
2018-07-13T10:01:56.646Z,1015.27
2018-07-13T10:02:36.005Z,1015.26
2018-07-13T10:03:11.537Z,1015.25
2018-07-13T10:03:47.057Z,1015.26
2018-07-13T10:04:22.194Z,1015.23
2018-07-13T10:05:03.916Z,1015.27
2018-07-13T10:05:42.402Z,1015.25
2018-07-13T10:06:17.618Z,1015.25
2018-07-13T10:06:56.272Z,1015.22
2018-07-13T10:07:31.579Z,1015.24
2018-07-13T10:08:10.135Z,1015.30
2018-07-13T10:08:45.925Z,1015.26
2018-07-13T10:09:22.020Z,1015.25
2018-07-13T10:09:57.351Z,1015.23
2018-07-13T10:10:32.946Z,1015.24
2018-07-13T10:11:08.485Z,1015.25
2018-07-13T10:11:44.011Z,1015.27
2018-07-13T10:12:19.433Z,1015.24
2018-07-13T10:12:54.849Z,1015.26
2018-07-13T10:13:30.350Z,1015.28
2018-07-13T10:14:05.601Z,1015.23
2018-07-13T10:14:40.952Z,1015.23
2018-07-13T10:15:16.485Z,1015.24
2018-07-13T10:15:51.844Z,1015.24
2018-07-13T10:16:27.256Z,1015.25
2018-07-13T10:17:02.425Z,1015.21
2018-07-13T10:17:38.361Z,1015.21
2018-07-13T10:18:14.089Z,1015.24
2018-07-13T10:18:49.348Z,1015.22
2018-07-13T10:19:24.688Z,1015.19
2018-07-13T10:20:00.241Z,1015.21
2018-07-13T10:20:35.944Z,1015.17
2018-07-13T10:21:11.472Z,1015.20
2018-07-13T10:21:47.017Z,1015.16
2018-07-13T10:22:22.448Z,1015.17
2018-07-13T10:22:57.841Z,1015.23
2018-07-13T10:23:33.082Z,1015.22
2018-07-13T10:24:08.291Z,1015.18
2018-07-13T10:24:43.669Z,1015.18
2018-07-13T10:25:19.233Z,1015.15
2018-07-13T10:25:55.340Z,1015.20
2018-07-13T10:26:30.977Z,1015.16
2018-07-13T10:27:06.692Z,1015.17
2018-07-13T10:27:42.530Z,1015.15
2018-07-13T10:28:18.828Z,1015.15
2018-07-13T10:28:54.390Z,1015.16
2018-07-13T10:29:29.828Z,1015.19
2018-07-13T10:30:05.286Z,1015.16
2018-07-13T10:30:42.465Z,1015.15
2018-07-13T10:31:18.185Z,1015.18
2018-07-13T10:31:53.625Z,1015.18
2018-07-13T10:32:28.946Z,1015.16
2018-07-13T10:33:04.379Z,1015.15
2018-07-13T10:33:39.572Z,1015.12
2018-07-13T10:34:15.112Z,1015.12
2018-07-13T10:34:50.534Z,1015.15
2018-07-13T10:35:25.924Z,1015.11
2018-07-13T10:36:01.411Z,1015.11
2018-07-13T10:36:36.750Z,1015.13
2018-07-13T10:37:12.179Z,1015.10
2018-07-13T10:37:47.617Z,1015.10
2018-07-13T10:38:23.066Z,1015.11
2018-07-13T10:38:58.380Z,1015.08
2018-07-13T10:39:33.942Z,1015.09
2018-07-13T10:40:09.663Z,1015.11
2018-07-13T10:40:45.096Z,1015.08
2018-07-13T10:41:20.804Z,1015.09
2018-07-13T10:41:56.041Z,1015.08
2018-07-13T10:42:31.460Z,1015.06
2018-07-13T10:43:06.693Z,1015.07
2018-07-13T10:43:42.042Z,1015.06
2018-07-13T10:44:17.564Z,1015.06
2018-07-13T10:44:52.944Z,1015.08
2018-07-13T10:45:28.559Z,1015.07
2018-07-13T10:46:04.183Z,1015.05
2018-07-13T10:46:40.218Z,1015.04
2018-07-13T10:47:15.662Z,1015.03
2018-07-13T10:47:50.904Z,1015.02
2018-07-13T10:48:26.353Z,1015.06
2018-07-13T10:49:01.659Z,1015.03
2018-07-13T10:49:36.908Z,1015.05
2018-07-13T10:50:12.122Z,1015.07
2018-07-13T10:50:47.559Z,1015.07
2018-07-13T10:51:22.912Z,1015.07
2018-07-13T10:51:58.156Z,1015.10
2018-07-13T10:52:33.414Z,1015.10
2018-07-13T10:53:08.730Z,1015.07
2018-07-13T10:53:44.582Z,1015.12
2018-07-13T10:54:19.959Z,1015.10
2018-07-13T10:54:55.512Z,1015.08
2018-07-13T10:55:31.216Z,1015.08
2018-07-13T10:56:06.540Z,1015.05
2018-07-13T10:56:42.168Z,1015.05
2018-07-13T10:57:17.418Z,1015.02
2018-07-13T10:57:52.750Z,1015.03
2018-07-13T10:58:28.005Z,1015.01
2018-07-13T10:59:03.295Z,1015.00
2018-07-13T10:59:38.635Z,1015.04
2018-07-13T11:00:14.072Z,1014.99
2018-07-13T11:00:49.587Z,1014.96
2018-07-13T11:01:25.034Z,1014.96
2018-07-13T11:02:00.248Z,1014.95
2018-07-13T11:02:35.777Z,1014.92
2018-07-13T11:03:11.218Z,1014.94
2018-07-13T11:03:46.550Z,1014.93
2018-07-13T11:04:22.153Z,1014.95
2018-07-13T11:04:57.389Z,1014.96
2018-07-13T11:05:32.965Z,1014.95
2018-07-13T11:06:08.279Z,1014.98
2018-07-13T11:06:43.740Z,1014.97
2018-07-13T11:07:19.031Z,1014.96
2018-07-13T11:07:54.442Z,1014.94
2018-07-13T11:08:29.740Z,1014.90
2018-07-13T11:09:05.180Z,1014.90
2018-07-13T11:09:40.730Z,1014.92
2018-07-13T11:10:16.270Z,1014.90
2018-07-13T11:10:51.769Z,1014.88
2018-07-13T11:11:27.097Z,1014.88
2018-07-13T11:12:02.636Z,1014.88
2018-07-13T11:12:38.395Z,1014.88
2018-07-13T11:13:13.632Z,1014.89
2018-07-13T11:13:49.018Z,1014.88
2018-07-13T11:14:24.515Z,1014.84
2018-07-13T11:14:59.924Z,1014.83
2018-07-13T11:15:35.352Z,1014.82
2018-07-13T11:16:13.469Z,1014.87
2018-07-13T11:16:48.914Z,1014.85
2018-07-13T11:17:24.461Z,1014.86
2018-07-13T11:17:59.813Z,1014.87
2018-07-13T11:18:34.958Z,1014.86
2018-07-13T11:19:10.768Z,1014.82
2018-07-13T11:19:46.226Z,1014.83
2018-07-13T11:20:21.564Z,1014.82
2018-07-13T11:20:56.899Z,1014.80
2018-07-13T11:21:32.097Z,1014.81
2018-07-13T11:22:07.557Z,1014.83
2018-07-13T11:22:43.047Z,1014.80
2018-07-13T11:23:18.289Z,1014.80
2018-07-13T11:23:53.789Z,1014.82
2018-07-13T11:24:29.301Z,1014.79
2018-07-13T11:25:05.245Z,1014.79
2018-07-13T11:25:40.532Z,1014.76
2018-07-13T11:26:15.970Z,1014.81
2018-07-13T11:26:51.272Z,1014.83
2018-07-13T11:27:26.730Z,1014.75
2018-07-13T11:28:02.738Z,1014.78
2018-07-13T11:28:38.812Z,1014.78
2018-07-13T11:29:14.217Z,1014.78
2018-07-13T11:29:49.851Z,1014.76
2018-07-13T11:30:25.100Z,1014.78
2018-07-13T11:31:02.344Z,1014.80
2018-07-13T11:31:37.665Z,1014.78
2018-07-13T11:32:13.097Z,1014.78
2018-07-13T11:32:49.435Z,1014.76
2018-07-13T11:33:24.836Z,1014.75
2018-07-13T11:34:00.267Z,1014.78
2018-07-13T11:34:35.796Z,1014.79
2018-07-13T11:35:11.149Z,1014.78
2018-07-13T11:35:48.386Z,1014.76
2018-07-13T11:36:23.621Z,1014.77
2018-07-13T11:37:00.411Z,1014.77
2018-07-13T11:37:35.609Z,1014.76
2018-07-13T11:38:10.758Z,1014.76
2018-07-13T11:38:46.153Z,1014.76
2018-07-13T11:39:21.804Z,1014.78
2018-07-13T11:40:01.028Z,1014.78
2018-07-13T11:40:36.368Z,1014.82
2018-07-13T11:41:11.779Z,1014.82
2018-07-13T11:41:47.099Z,1014.80
2018-07-13T11:42:23.308Z,1014.84
2018-07-13T11:42:58.842Z,1014.84
2018-07-13T11:43:34.355Z,1014.80
2018-07-13T11:44:09.660Z,1014.79
2018-07-13T11:44:44.787Z,1014.79
2018-07-13T11:45:20.124Z,1014.76
2018-07-13T11:45:55.568Z,1014.75
2018-07-13T11:46:31.175Z,1014.77
2018-07-13T11:47:07.531Z,1014.74
2018-07-13T11:47:43.044Z,1014.74
2018-07-13T11:48:18.463Z,1014.76
2018-07-13T11:48:54.179Z,1014.76
2018-07-13T11:49:29.430Z,1014.76
2018-07-13T11:50:04.929Z,1014.76
2018-07-13T11:50:41.403Z,1014.74
2018-07-13T11:51:16.906Z,1014.75
2018-07-13T11:51:52.079Z,1014.75
2018-07-13T11:52:27.549Z,1014.75
2018-07-13T11:53:02.967Z,1014.72
2018-07-13T11:53:39.209Z,1014.71
2018-07-13T11:54:14.721Z,1014.68
2018-07-13T11:54:50.002Z,1014.67
2018-07-13T11:55:25.308Z,1014.70
2018-07-13T11:56:00.649Z,1014.68
2018-07-13T11:56:36.625Z,1014.70
2018-07-13T11:57:11.914Z,1014.69
2018-07-13T11:57:47.135Z,1014.70
2018-07-13T11:58:22.561Z,1014.68
2018-07-13T11:58:59.935Z,1014.69
2018-07-13T11:59:35.497Z,1014.63
2018-07-13T12:00:11.325Z,1014.68
2018-07-13T12:00:50.623Z,1014.67
2018-07-13T12:01:25.977Z,1014.62
2018-07-13T12:02:03.406Z,1014.63
2018-07-13T12:02:39.355Z,1014.66
2018-07-13T12:03:14.682Z,1014.72
2018-07-13T12:03:49.996Z,1014.69
2018-07-13T12:04:25.448Z,1014.70
2018-07-13T12:05:02.464Z,1014.68
2018-07-13T12:05:38.687Z,1014.70
2018-07-13T12:06:13.999Z,1014.71
2018-07-13T12:06:49.541Z,1014.71
2018-07-13T12:07:25.120Z,1014.68
2018-07-13T12:08:02.002Z,1014.72
2018-07-13T12:08:37.340Z,1014.69
2018-07-13T12:09:13.386Z,1014.70
2018-07-13T12:09:51.712Z,1014.64
2018-07-13T12:10:26.951Z,1014.68
2018-07-13T12:11:02.290Z,1014.65
2018-07-13T12:11:37.279Z,1014.66
2018-07-13T12:12:12.646Z,1014.69
2018-07-13T12:12:49.794Z,1014.66
2018-07-13T12:13:25.472Z,1014.65
2018-07-13T12:14:00.678Z,1014.61
2018-07-13T12:14:37.612Z,1014.61
2018-07-13T12:15:14.276Z,1014.60
2018-07-13T12:15:53.117Z,1014.58
2018-07-13T12:16:29.303Z,1014.60
2018-07-13T12:17:04.911Z,1014.62
2018-07-13T12:17:41.455Z,1014.56
2018-07-13T12:18:17.952Z,1014.55
2018-07-13T12:18:54.196Z,1014.59
2018-07-13T12:19:30.012Z,1014.56
2018-07-13T12:20:05.222Z,1014.53
2018-07-13T12:20:43.951Z,1014.54
2018-07-13T12:21:20.272Z,1014.55
2018-07-13T12:21:55.835Z,1014.53
2018-07-13T12:22:31.054Z,1014.50
2018-07-13T12:23:06.668Z,1014.47
2018-07-13T12:23:42.118Z,1014.49
2018-07-13T12:24:17.337Z,1014.43
2018-07-13T12:24:53.389Z,1014.45
2018-07-13T12:25:29.217Z,1014.47
2018-07-13T12:26:05.528Z,1014.47
2018-07-13T12:26:40.951Z,1014.48
2018-07-13T12:27:16.205Z,1014.46
2018-07-13T12:27:51.613Z,1014.45
2018-07-13T12:28:27.091Z,1014.47
2018-07-13T12:29:02.315Z,1014.42
2018-07-13T12:29:37.897Z,1014.45
2018-07-13T12:30:13.632Z,1014.46
2018-07-13T12:30:48.754Z,1014.45
2018-07-13T12:31:24.149Z,1014.41
2018-07-13T12:32:00.578Z,1014.43
2018-07-13T12:32:35.983Z,1014.45
2018-07-13T12:33:11.314Z,1014.45
2018-07-13T12:33:46.568Z,1014.43
2018-07-13T12:34:21.908Z,1014.45
2018-07-13T12:34:58.896Z,1014.47
2018-07-13T12:35:34.409Z,1014.47
2018-07-13T12:36:09.764Z,1014.49
2018-07-13T12:36:46.717Z,1014.50